Time;durP1;ratioP1;P1;durP2;ratioP2;P2;SDS_P1;SDS_P2;PMS_P1;PMS_P2;Temp;Humidity;BMP_temperature;BMP_pressure;BME280_temperature;BME280_humidity;BME280_pressure;Samples;Min_cycle;Max_cycle;Signal;HPM_P1;HPM_P2
2022/09/20 00:02:17;;;;;;;8.65;3.72;;;15.00;99.90;;;;;;5070773;28;20207;-56
2022/09/20 00:04:43;;;;;;;7.25;3.80;;;13.80;99.90;;;;;;5070860;28;20751;-56
2022/09/20 00:07:08;;;;;;;6.15;3.60;;;13.90;99.90;;;;;;5070882;28;20726;-56
2022/09/20 00:09:34;;;;;;;6.57;3.30;;;13.80;99.90;;;;;;5070608;28;20653;-56
2022/09/20 00:12:00;;;;;;;9.75;3.92;;;13.90;99.90;;;;;;5070586;28;20169;-56
2022/09/20 00:14:25;;;;;;;5.30;3.20;;;13.90;99.90;;;;;;5070636;28;20179;-56
2022/09/20 00:16:51;;;;;;;5.35;3.35;;;13.90;99.90;;;;;;5070617;28;20650;-56
2022/09/20 00:19:20;;;;;;;5.60;3.10;;;14.00;99.90;;;;;;5070490;28;20626;-55
2022/09/20 00:21:45;;;;;;;7.88;3.20;;;14.00;99.90;;;;;;5070479;28;20184;-56
2022/09/20 00:24:11;;;;;;;5.82;3.00;;;14.00;99.90;;;;;;5070513;28;20172;-55
2022/09/20 00:26:37;;;;;;;5.32;2.83;;;14.00;99.90;;;;;;5070425;28;20169;-56
2022/09/20 00:29:04;;;;;;;7.85;3.47;;;14.00;99.90;;;;;;5069668;28;20227;-56
2022/09/20 00:31:29;;;;;;;6.13;2.95;;;14.00;99.90;;;;;;5070526;28;20175;-56
2022/09/20 00:36:40;;;;;;;4.85;2.90;;;14.00;99.90;;;;;;5070348;28;20230;-56
2022/09/20 00:39:06;;;;;;;6.53;2.83;;;14.00;99.90;;;;;;5070244;28;20168;-56
2022/09/20 00:41:33;;;;;;;5.38;2.63;;;14.10;99.90;;;;;;5070252;28;20599;-56
2022/09/20 00:43:59;;;;;;;3.70;2.35;;;14.10;99.90;;;;;;5070153;28;20249;-55
2022/09/20 00:46:28;;;;;;;5.07;2.28;;;14.10;99.90;;;;;;5070109;28;20168;-56
2022/09/20 00:49:17;;;;;;;4.97;2.53;;;14.10;99.90;;;;;;5070082;28;20615;-56
2022/09/20 00:51:48;;;;;;;7.43;2.22;;;14.10;99.90;;;;;;5070045;28;20729;-58
2022/09/20 00:54:16;;;;;;;5.70;2.42;;;14.20;99.90;;;;;;5070048;28;20194;-56
2022/09/20 00:56:42;;;;;;;5.43;2.35;;;14.10;99.90;;;;;;5070074;28;20215;-56
2022/09/20 00:59:22;;;;;;;5.55;2.63;;;14.20;99.90;;;;;;5070061;28;20222;-56
2022/09/20 01:01:58;;;;;;;6.88;2.97;;;14.10;99.90;;;;;;5070066;28;20255;-56
2022/09/20 01:04:26;;;;;;;5.05;3.17;;;14.10;99.90;;;;;;5066597;28;20235;-56
2022/09/20 01:06:55;;;;;;;7.68;3.20;;;14.10;99.90;;;;;;5059633;28;20206;-56
2022/09/20 01:09:20;;;;;;;10.43;3.38;;;14.10;99.90;;;;;;5052308;28;20258;-56
2022/09/20 01:11:47;;;;;;;6.63;3.20;;;14.10;99.90;;;;;;5053135;28;20639;-56
2022/09/20 01:14:15;;;;;;;5.32;3.00;;;14.00;99.90;;;;;;5049967;28;20177;-56
2022/09/20 01:16:41;;;;;;;5.55;2.80;;;14.10;99.90;;;;;;5049794;28;20197;-56
2022/09/20 01:19:29;;;;;;;5.13;2.60;;;14.10;99.90;;;;;;5049843;28;20203;-55
2022/09/20 01:21:55;;;;;;;6.15;2.72;;;14.10;99.90;;;;;;5049722;28;20193;-56
2022/09/20 01:24:28;;;;;;;5.43;2.90;;;14.10;99.90;;;;;;5069900;28;20165;-56
2022/09/20 01:27:17;;;;;;;4.32;2.42;;;14.10;99.90;;;;;;5069830;28;20219;-56
2022/09/20 01:29:52;;;;;;;6.18;2.60;;;14.10;99.90;;;;;;5061531;28;20196;-56
2022/09/20 01:32:22;;;;;;;4.80;3.05;;;14.10;99.90;;;;;;5070222;28;20218;-56
2022/09/20 01:34:58;;;;;;;5.18;2.70;;;14.10;99.90;;;;;;5069934;28;20241;-56
2022/09/20 01:37:36;;;;;;;5.82;3.25;;;14.10;99.90;;;;;;5069791;28;20259;-56
2022/09/20 01:40:19;;;;;;;3.85;2.97;;;14.20;99.90;;;;;;5070225;28;20261;-54
2022/09/20 01:43:04;;;;;;;5.35;2.75;;;14.20;99.90;;;;;;5073332;28;20193;-55
2022/09/20 01:45:31;;;;;;;6.80;2.90;;;14.20;99.90;;;;;;5073528;28;20635;-54
2022/09/20 01:48:02;;;;;;;6.43;3.17;;;14.20;99.90;;;;;;5073446;28;20323;-54
2022/09/20 01:50:59;;;;;;;5.00;3.00;;;14.20;99.90;;;;;;5073411;28;20268;-54
2022/09/20 01:53:43;;;;;;;5.43;2.85;;;14.20;99.90;;;;;;5073246;28;20662;-56
2022/09/20 01:56:41;;;;;;;10.75;3.40;;;14.20;99.90;;;;;;5073391;28;20328;-54
2022/09/20 01:59:13;;;;;;;3.72;2.30;;;14.10;99.90;;;;;;5055291;28;20333;-54
2022/09/20 02:01:59;;;;;;;4.78;3.05;;;14.10;99.90;;;;;;5073140;28;20161;-56
2022/09/20 02:04:46;;;;;;;11.25;3.33;;;14.00;99.90;;;;;;5072901;28;20227;-55
2022/09/20 02:07:31;;;;;;;8.25;3.15;;;13.90;99.90;;;;;;5073040;28;20700;-54
2022/09/20 02:10:18;;;;;;;5.93;2.90;;;13.90;99.90;;;;;;5072846;28;20643;-55
2022/09/20 02:12:56;;;;;;;6.35;3.10;;;13.90;99.90;;;;;;5054914;28;20208;-56
2022/09/20 02:15:54;;;;;;;4.35;3.08;;;13.90;99.90;;;;;;5073069;28;20168;-56
2022/09/20 02:18:40;;;;;;;5.15;2.75;;;13.90;99.90;;;;;;5046770;28;20184;-56
2022/09/20 02:21:39;;;;;;;4.47;2.80;;;13.90;99.90;;;;;;5041220;28;20229;-56
2022/09/20 02:24:13;;;;;;;4.78;2.92;;;13.90;99.90;;;;;;5072688;28;20643;-56
2022/09/20 02:27:01;;;;;;;5.53;2.90;;;13.80;99.90;;;;;;5072779;28;20188;-56
2022/09/20 02:29:32;;;;;;;7.50;2.95;;;13.80;99.90;;;;;;5072562;28;20311;-56
2022/09/20 02:32:20;;;;;;;8.45;2.90;;;13.70;99.90;;;;;;5072628;28;20176;-56
2022/09/20 02:35:07;;;;;;;4.75;2.83;;;13.70;99.90;;;;;;5072527;28;20614;-55
2022/09/20 02:37:35;;;;;;;3.92;2.42;;;13.60;99.90;;;;;;5072597;28;20172;-55
2022/09/20 02:40:35;;;;;;;7.63;3.38;;;13.70;99.90;;;;;;5072510;28;20218;-56
2022/09/20 02:43:30;;;;;;;5.93;2.55;;;13.60;99.90;;;;;;5054482;28;20184;-56
2022/09/20 02:46:29;;;;;;;6.13;2.60;;;13.60;99.90;;;;;;5061619;28;20259;-55
2022/09/20 02:49:13;;;;;;;5.32;2.50;;;13.60;99.90;;;;;;5058625;28;20228;-55
2022/09/20 02:51:45;;;;;;;4.03;2.45;;;13.50;99.90;;;;;;5071906;28;20173;-55
2022/09/20 02:54:17;;;;;;;4.90;2.65;;;13.40;99.90;;;;;;5072240;28;20165;-56
2022/09/20 02:57:02;;;;;;;6.53;2.22;;;13.40;99.90;;;;;;5072180;28;20255;-55
2022/09/20 02:59:52;;;;;;;4.82;2.58;;;13.30;99.90;;;;;;5072171;28;20173;-55
2022/09/20 03:02:42;;;;;;;3.40;2.22;;;13.30;99.90;;;;;;5071967;28;20200;-55
2022/09/20 03:05:35;;;;;;;4.20;2.28;;;13.20;99.90;;;;;;5072013;28;20244;-55
2022/09/20 03:08:04;;;;;;;5.57;3.03;;;13.10;99.90;;;;;;5071930;28;20215;-55
2022/09/20 03:10:38;;;;;;;8.38;2.60;;;13.10;99.90;;;;;;5071929;28;20627;-56
2022/09/20 03:13:04;;;;;;;4.68;2.25;;;13.00;99.90;;;;;;5071953;28;20184;-55
2022/09/20 03:15:41;;;;;;;8.57;2.45;;;12.80;99.90;;;;;;5071844;28;20670;-56
2022/09/20 03:18:32;;;;;;;4.33;2.60;;;12.80;99.90;;;;;;5071894;28;20221;-55
2022/09/20 03:21:25;;;;;;;4.50;2.70;;;12.70;99.90;;;;;;5072003;28;20188;-56
2022/09/20 03:24:13;;;;;;;5.43;2.40;;;12.70;99.90;;;;;;5061034;28;20637;-56
2022/09/20 03:27:02;;;;;;;4.67;2.60;;;12.70;99.90;;;;;;5051655;28;20628;-56
2022/09/20 03:29:43;;;;;;;4.23;2.40;;;12.60;99.90;;;;;;5051705;28;20197;-56
2022/09/20 03:32:21;;;;;;;2.70;2.07;;;12.60;99.90;;;;;;5051810;28;20525;-56
2022/09/20 03:34:52;;;;;;;5.77;2.27;;;12.50;99.90;;;;;;5051519;28;20166;-56
2022/09/20 03:37:39;;;;;;;5.97;2.33;;;12.50;99.90;;;;;;5051499;28;20184;-57
2022/09/20 03:40:41;;;;;;;6.63;2.60;;;12.40;99.90;;;;;;5051415;28;20173;-56
2022/09/20 03:43:21;;;;;;;6.07;2.77;;;12.40;99.90;;;;;;5051285;28;20172;-56
2022/09/20 03:45:56;;;;;;;6.03;2.73;;;12.30;99.90;;;;;;5051296;28;20169;-56
2022/09/20 03:48:38;;;;;;;6.60;2.40;;;12.30;99.90;;;;;;5051244;28;20212;-56
2022/09/20 03:51:33;;;;;;;3.80;2.30;;;12.30;99.90;;;;;;5051232;28;20176;-56
2022/09/20 03:54:18;;;;;;;4.27;2.50;;;12.30;99.90;;;;;;5051170;28;20731;-56
2022/09/20 03:57:18;;;;;;;6.07;2.47;;;12.20;99.90;;;;;;5051320;28;20216;-56
2022/09/20 03:59:53;;;;;;;6.30;2.80;;;12.20;99.90;;;;;;5051583;28;20226;-56
2022/09/20 04:02:39;;;;;;;5.63;2.37;;;12.20;99.90;;;;;;5050803;28;20180;-56
2022/09/20 04:05:44;;;;;;;5.60;2.87;;;12.10;99.90;;;;;;5049933;28;20282;-56
2022/09/20 04:08:13;;;;;;;5.33;2.90;;;12.10;99.90;;;;;;5048982;28;21002;-56
2022/09/20 04:11:14;;;;;;;7.70;2.53;;;12.10;99.90;;;;;;5050759;28;20231;-55
2022/09/20 04:14:09;;;;;;;9.73;2.37;;;12.10;99.90;;;;;;5050935;28;20180;-55
2022/09/20 04:17:13;;;;;;;3.47;2.50;;;12.10;99.90;;;;;;5050746;28;20185;-56
2022/09/20 04:19:47;;;;;;;6.87;2.53;;;12.10;99.90;;;;;;5050622;28;20187;-56
2022/09/20 04:22:13;;;;;;;7.57;2.30;;;12.00;99.90;;;;;;5050639;28;20181;-55
2022/09/20 04:24:55;;;;;;;4.07;2.40;;;12.00;99.90;;;;;;5050620;28;20184;-55
2022/09/20 04:27:36;;;;;;;5.10;2.17;;;11.90;99.90;;;;;;5050518;28;20173;-56
2022/09/20 04:30:05;;;;;;;5.43;2.83;;;11.90;99.90;;;;;;5050723;28;20188;-56
2022/09/20 04:32:38;;;;;;;6.87;3.17;;;11.80;99.90;;;;;;5050502;28;20185;-55
2022/09/20 04:38:41;;;;;;;3.47;2.30;;;11.40;99.90;;;;;;4988833;28;20634;-56
2022/09/20 04:41:15;;;;;;;8.10;2.90;;;11.60;99.90;;;;;;5037392;28;20189;-55
2022/09/20 04:43:49;;;;;;;6.63;3.10;;;11.60;99.90;;;;;;5050294;28;20167;-56
2022/09/20 04:46:21;;;;;;;7.17;2.50;;;11.50;99.90;;;;;;5050230;28;20174;-55
2022/09/20 04:48:55;;;;;;;7.07;2.70;;;11.50;99.90;;;;;;5050284;28;20345;-55
2022/09/20 04:51:51;;;;;;;4.87;2.57;;;11.40;99.90;;;;;;5050262;28;20279;-55
2022/09/20 04:54:25;;;;;;;6.13;3.23;;;11.50;99.90;;;;;;5050019;28;20204;-55
2022/09/20 04:56:51;;;;;;;13.77;4.20;;;11.50;99.90;;;;;;5050141;28;20183;-56
2022/09/20 04:59:53;;;;;;;9.37;3.90;;;11.50;99.90;;;;;;5050118;28;20165;-56
2022/09/20 05:02:41;;;;;;;6.93;3.23;;;11.50;99.90;;;;;;5050231;28;20249;-55
2022/09/20 05:05:40;;;;;;;4.97;2.80;;;11.50;99.90;;;;;;5049851;28;20220;-55
2022/09/20 05:08:39;;;;;;;4.90;2.80;;;11.50;99.90;;;;;;5049995;28;20291;-55
2022/09/20 05:11:08;;;;;;;3.90;2.67;;;11.50;99.90;;;;;;5049947;28;20187;-55
2022/09/20 05:13:56;;;;;;;6.77;2.90;;;11.50;99.90;;;;;;5050176;28;20181;-55
2022/09/20 05:16:25;;;;;;;5.83;3.10;;;12.30;99.90;;;;;;5052685;28;20218;-55
2022/09/20 05:19:19;;;;;;;5.97;2.97;;;11.50;99.90;;;;;;5054019;28;20173;-55
2022/09/20 05:22:06;;;;;;;5.23;2.70;;;11.50;99.90;;;;;;5054093;28;20234;-55
2022/09/20 05:24:53;;;;;;;7.90;2.57;;;11.40;99.90;;;;;;5053947;28;20771;-55
2022/09/20 05:27:18;;;;;;;9.20;2.87;;;11.30;99.90;;;;;;5056786;28;20181;-55
2022/09/20 05:30:01;;;;;;;8.83;3.00;;;11.20;99.90;;;;;;5070715;28;20261;-55
2022/09/20 05:32:39;;;;;;;5.70;3.10;;;11.20;99.90;;;;;;5067585;28;20181;-56
2022/09/20 05:35:32;;;;;;;6.13;3.17;;;11.20;99.90;;;;;;5035634;28;20226;-56
2022/09/20 05:38:10;;;;;;;7.07;2.87;;;11.30;99.90;;;;;;5054056;28;20191;-55
2022/09/20 05:40:50;;;;;;;6.23;2.80;;;11.10;99.90;;;;;;5053501;28;20161;-56
2022/09/20 05:43:29;;;;;;;6.90;3.13;;;11.20;99.90;;;;;;5053559;28;20173;-55
2022/09/20 05:46:20;;;;;;;13.57;3.10;;;11.30;99.90;;;;;;5053341;28;20196;-56
2022/09/20 05:49:01;;;;;;;5.87;3.00;;;11.40;99.90;;;;;;5053166;28;20261;-56
2022/09/20 05:51:58;;;;;;;7.17;3.63;;;11.50;99.90;;;;;;5053417;28;20256;-56
2022/09/20 05:54:35;;;;;;;4.83;2.70;;;11.40;99.90;;;;;;5025792;28;20185;-55
2022/09/20 05:57:34;;;;;;;4.23;2.57;;;11.40;99.90;;;;;;5053231;28;20545;-55
2022/09/20 06:00:08;;;;;;;6.60;2.60;;;11.40;99.90;;;;;;5053145;28;20169;-55
2022/09/20 06:02:37;;;;;;;6.20;2.83;;;11.30;99.90;;;;;;5053275;28;20184;-55
2022/09/20 06:05:41;;;;;;;5.47;3.40;;;11.30;99.90;;;;;;5053061;28;20571;-55
2022/09/20 06:09:00;;;;;;;4.63;2.93;;;11.30;99.90;;;;;;5053130;28;20213;-55
2022/09/20 06:11:56;;;;;;;7.40;3.13;;;11.30;99.90;;;;;;4971824;28;20184;-55
2022/09/20 06:14:45;;;;;;;6.77;2.97;;;11.30;99.90;;;;;;5052820;28;20189;-55
2022/09/20 06:17:27;;;;;;;6.97;2.97;;;11.30;99.90;;;;;;5053123;28;20177;-55
2022/09/20 06:20:24;;;;;;;5.13;2.90;;;11.30;99.90;;;;;;5052927;28;20180;-55
2022/09/20 06:22:55;;;;;;;4.23;2.90;;;11.30;99.90;;;;;;5052974;28;20184;-55
2022/09/20 06:25:47;;;;;;;6.00;2.60;;;11.40;99.90;;;;;;5052947;28;20643;-55
2022/09/20 06:28:32;;;;;;;6.43;2.73;;;11.40;99.90;;;;;;5051618;28;20652;-55
2022/09/20 06:30:58;;;;;;;6.33;3.23;;;11.50;99.90;;;;;;5052823;28;20172;-56
2022/09/20 06:33:26;;;;;;;8.17;3.40;;;11.50;99.90;;;;;;5051573;28;20252;-55
2022/09/20 06:42:18;;;;;;;8.37;3.60;;;11.80;99.90;;;;;;5052613;28;20181;-55
2022/09/20 06:44:43;;;;;;;6.17;3.47;;;11.90;99.90;;;;;;5052372;28;20642;-55
2022/09/20 06:47:10;;;;;;;13.30;3.30;;;11.90;99.90;;;;;;5052380;28;20180;-55
2022/09/20 06:49:36;;;;;;;5.37;3.73;;;11.90;99.90;;;;;;5052529;28;20213;-55
2022/09/20 06:52:06;;;;;;;8.60;2.90;;;12.00;99.90;;;;;;5052466;28;20656;-55
2022/09/20 06:54:32;;;;;;;14.20;3.47;;;12.00;99.90;;;;;;5052265;28;20177;-55
2022/09/20 06:57:02;;;;;;;15.40;3.90;;;12.00;99.90;;;;;;5052235;28;20173;-55
2022/09/20 06:59:27;;;;;;;13.27;4.07;;;12.10;99.90;;;;;;5052180;28;20173;-55
2022/09/20 07:01:53;;;;;;;8.43;3.87;;;12.20;99.90;;;;;;5052244;28;20632;-55
2022/09/20 07:04:20;;;;;;;18.80;4.40;;;12.30;99.90;;;;;;5051901;28;20169;-55
2022/09/20 07:06:47;;;;;;;21.57;4.20;;;12.40;99.90;;;;;;5052124;28;20181;-55
2022/09/20 07:09:12;;;;;;;16.93;3.60;;;12.40;99.90;;;;;;5051861;28;20236;-55
2022/09/20 07:11:38;;;;;;;23.53;3.87;;;12.50;99.90;;;;;;5051756;28;20621;-55
2022/09/20 07:14:06;;;;;;;18.17;4.13;;;12.60;99.90;;;;;;5051772;28;20219;-56
2022/09/20 07:16:31;;;;;;;10.65;3.60;;;12.80;99.90;;;;;;5051533;28;20181;-56
2022/09/20 07:18:57;;;;;;;21.87;4.70;;;12.90;99.90;;;;;;5051661;28;20220;-55
2022/09/20 07:21:22;;;;;;;28.23;4.70;;;13.00;99.90;;;;;;5051512;28;20251;-55
2022/09/20 07:23:48;;;;;;;21.38;4.18;;;13.10;99.90;;;;;;5051481;28;20486;-56
2022/09/20 07:26:35;;;;;;;18.27;4.10;;;13.20;99.90;;;;;;5051357;28;20577;-55
2022/09/20 07:29:01;;;;;;;26.02;5.00;;;13.30;99.90;;;;;;5051192;28;20227;-56
2022/09/20 07:31:27;;;;;;;25.27;4.63;;;13.40;99.90;;;;;;5051305;28;20162;-56
2022/09/20 07:33:54;;;;;;;28.75;4.55;;;13.40;99.90;;;;;;5051234;28;20215;-56
2022/09/20 07:36:20;;;;;;;31.90;4.65;;;13.40;99.90;;;;;;5033286;28;20197;-56
2022/09/20 07:38:48;;;;;;;18.88;4.00;;;13.50;99.90;;;;;;5054268;28;20283;-56
2022/09/20 07:41:15;;;;;;;13.85;4.05;;;13.60;99.90;;;;;;5060770;28;20184;-56
2022/09/20 07:43:41;;;;;;;15.75;4.20;;;13.60;99.90;;;;;;5071266;28;20212;-56
2022/09/20 07:46:08;;;;;;;17.20;3.92;;;13.50;99.90;;;;;;5055160;28;20197;-56
2022/09/20 07:48:35;;;;;;;20.15;4.05;;;13.50;99.90;;;;;;5051248;28;20209;-56
2022/09/20 07:51:04;;;;;;;15.15;4.20;;;13.60;99.90;;;;;;5051223;28;20251;-56
2022/09/20 07:53:30;;;;;;;13.05;4.13;;;13.60;99.90;;;;;;5051324;28;20177;-56
2022/09/20 07:55:57;;;;;;;15.07;4.03;;;13.70;99.90;;;;;;5051158;28;20893;-55
2022/09/20 07:58:22;;;;;;;18.02;4.22;;;13.80;99.90;;;;;;5067953;28;20249;-59
2022/09/20 08:00:53;;;;;;;22.10;4.30;;;13.90;99.90;;;;;;5071075;28;20635;-55
2022/09/20 08:03:19;;;;;;;16.52;4.25;;;13.90;99.90;;;;;;5070503;28;20634;-56
2022/09/20 08:05:44;;;;;;;27.25;4.50;;;14.00;99.90;;;;;;5070746;28;20313;-55
2022/09/20 08:08:10;;;;;;;20.63;4.80;;;14.00;99.90;;;;;;5070763;28;20551;-56
2022/09/20 08:10:40;;;;;;;18.48;4.57;;;14.10;99.90;;;;;;5070937;28;20179;-58
2022/09/20 08:13:06;;;;;;;27.17;5.65;;;14.30;99.90;;;;;;5070975;28;20215;-56
2022/09/20 08:15:31;;;;;;;29.35;4.50;;;14.40;99.90;;;;;;5070839;28;20173;-54
2022/09/20 08:17:57;;;;;;;17.60;4.00;;;14.60;99.90;;;;;;5070540;28;20744;-55
2022/09/20 08:20:23;;;;;;;21.77;4.40;;;14.80;99.90;;;;;;5070394;28;20197;-54
2022/09/20 08:22:48;;;;;;;17.90;4.65;;;15.10;99.90;;;;;;5070402;28;20206;-54
2022/09/20 08:25:16;;;;;;;15.55;4.68;;;15.20;99.90;;;;;;5070284;28;20250;-55
2022/09/20 08:27:42;;;;;;;13.57;4.13;;;15.50;99.90;;;;;;5070296;28;20182;-54
2022/09/20 08:30:09;;;;;;;13.00;4.43;;;15.90;99.90;;;;;;5070353;28;20674;-55
2022/09/20 08:32:37;;;;;;;20.63;4.45;;;16.40;99.90;;;;;;5070207;28;20635;-55
2022/09/20 08:35:03;;;;;;;15.80;5.10;;;16.60;99.90;;;;;;5070217;28;20191;-55
2022/09/20 08:37:29;;;;;;;14.27;4.47;;;;;;;;;;5070187;28;20188;-55
2022/09/20 08:39:55;;;;;;;14.00;4.78;;;16.70;99.90;;;;;;5070198;28;20199;-55
2022/09/20 08:42:28;;;;;;;16.15;4.88;;;16.70;99.90;;;;;;5070268;28;20172;-54
2022/09/20 08:45:04;;;;;;;19.38;4.88;;;16.70;99.90;;;;;;5070006;28;20195;-55
2022/09/20 08:47:33;;;;;;;12.68;5.22;;;16.70;99.90;;;;;;5070167;28;20172;-56
2022/09/20 08:50:01;;;;;;;16.08;4.68;;;16.50;99.90;;;;;;5069603;28;20199;-56
2022/09/20 08:52:37;;;;;;;12.27;5.00;;;15.80;99.90;;;;;;5070225;28;20167;-53
2022/09/20 08:55:26;;;;;;;11.45;5.22;;;16.60;99.90;;;;;;5070283;28;20354;-56
2022/09/20 08:57:55;;;;;;;11.13;5.15;;;16.50;99.90;;;;;;5070005;28;20176;-54
2022/09/20 09:00:28;;;;;;;8.45;5.40;;;16.60;99.90;;;;;;5069920;28;20225;-55
2022/09/20 09:02:57;;;;;;;12.10;6.00;;;16.70;99.90;;;;;;5070175;28;20160;-55
2022/09/20 09:05:31;;;;;;;14.25;5.53;;;17.20;99.90;;;;;;5069929;28;20605;-54
2022/09/20 09:08:02;;;;;;;18.55;7.25;;;17.30;99.90;;;;;;5070054;28;20674;-55
2022/09/20 09:10:35;;;;;;;15.65;6.65;;;17.80;99.90;;;;;;5070042;28;20252;-54
2022/09/20 09:13:01;;;;;;;28.58;6.80;;;18.20;99.90;;;;;;5070089;28;20177;-55
2022/09/20 09:15:31;;;;;;;22.45;6.63;;;18.10;99.90;;;;;;5051852;28;20183;-55
2022/09/20 09:17:57;;;;;;;17.52;7.13;;;18.70;99.90;;;;;;5069990;28;20173;-56
2022/09/20 09:20:23;;;;;;;25.33;7.93;;;18.80;99.90;;;;;;5069797;28;20604;-56
2022/09/20 09:23:05;;;;;;;19.52;7.65;;;18.90;99.90;;;;;;5069840;28;20180;-57
2022/09/20 09:25:36;;;;;;;18.15;7.50;;;18.30;99.90;;;;;;5069585;28;20173;-56
2022/09/20 09:28:13;;;;;;;19.65;8.00;;;19.30;99.90;;;;;;5069747;28;20266;-54
2022/09/20 09:30:45;;;;;;;12.75;7.03;;;19.40;99.90;;;;;;5069636;28;20176;-54
2022/09/20 09:33:24;;;;;;;16.58;9.23;;;19.50;99.90;;;;;;5069711;28;20167;-54
2022/09/20 09:35:55;;;;;;;12.57;7.93;;;19.60;99.90;;;;;;5069463;28;20187;-54
2022/09/20 09:38:25;;;;;;;15.75;7.95;;;19.30;99.90;;;;;;5069557;28;20628;-54
2022/09/20 09:40:55;;;;;;;13.25;8.50;;;19.40;99.90;;;;;;5069665;28;20241;-55
2022/09/20 09:43:34;;;;;;;19.00;7.40;;;19.30;99.90;;;;;;5069648;28;20217;-55
2022/09/20 09:46:25;;;;;;;12.95;7.97;;;19.20;99.90;;;;;;5069552;28;20169;-55
2022/09/20 09:49:21;;;;;;;16.23;7.43;;;19.20;99.90;;;;;;5069410;28;20242;-55
2022/09/20 09:52:23;;;;;;;15.57;6.70;;;19.30;99.90;;;;;;5069658;28;20213;-55
2022/09/20 09:54:53;;;;;;;14.85;6.47;;;19.50;99.90;;;;;;5069724;28;20196;-55
2022/09/20 09:57:52;;;;;;;13.43;7.03;;;19.40;99.90;;;;;;5069690;28;20196;-55
2022/09/20 10:00:20;;;;;;;18.70;7.43;;;19.60;99.90;;;;;;5045004;28;20647;-55
2022/09/20 10:02:52;;;;;;;10.80;6.63;;;19.70;99.90;;;;;;5070989;28;20228;-55
2022/09/20 10:05:21;;;;;;;15.07;6.63;;;18.90;99.90;;;;;;5072908;28;20281;-55
2022/09/20 10:08:12;;;;;;;13.27;6.15;;;19.00;99.90;;;;;;5072932;28;20188;-55
2022/09/20 10:10:53;;;;;;;11.23;6.97;;;19.00;99.90;;;;;;5072723;28;20172;-55
2022/09/20 10:13:46;;;;;;;13.32;5.43;;;19.20;99.90;;;;;;5072635;28;20172;-55
2022/09/20 10:16:11;;;;;;;25.52;6.40;;;19.20;99.90;;;;;;5070218;28;20589;-55
2022/09/20 10:18:59;;;;;;;7.63;5.15;;;19.40;99.90;;;;;;5072822;28;20205;-55
2022/09/20 10:21:49;;;;;;;11.07;5.38;;;19.50;99.90;;;;;;5072730;28;20716;-55
2022/09/20 10:24:21;;;;;;;8.52;5.57;;;19.60;99.90;;;;;;5054598;28;20177;-55
2022/09/20 10:27:06;;;;;;;7.45;4.75;;;19.50;99.90;;;;;;5072682;28;20184;-55
2022/09/20 10:29:34;;;;;;;9.10;5.43;;;19.60;99.90;;;;;;5072608;28;20261;-55
2022/09/20 10:32:34;;;;;;;11.23;5.93;;;19.80;99.90;;;;;;5072443;28;20161;-55
2022/09/20 10:35:21;;;;;;;12.38;5.22;;;20.10;99.90;;;;;;5072883;28;20700;-55
2022/09/20 10:38:13;;;;;;;11.55;5.13;;;20.20;99.90;;;;;;5072472;28;20340;-55
2022/09/20 10:43:57;;;;;;;9.63;4.90;;;21.10;99.90;;;;;;5072651;28;20256;-55
2022/09/20 10:47:11;;;;;;;7.22;4.78;;;22.20;99.90;;;;;;5059739;28;20624;-55
2022/09/20 10:49:56;;;;;;;9.60;4.78;;;23.30;99.90;;;;;;4951907;28;20706;-56
2022/09/20 10:52:50;;;;;;;7.07;3.90;;;23.60;99.90;;;;;;4965952;28;20192;-55
2022/09/20 10:55:35;;;;;;;12.80;3.88;;;23.70;99.90;;;;;;5038921;28;20192;-55
2022/09/20 10:58:36;;;;;;;6.90;3.30;;;23.40;99.90;;;;;;5072047;28;20654;-55
2022/09/20 11:01:13;;;;;;;4.38;3.28;;;23.80;99.90;;;;;;5010066;28;20182;-55
2022/09/20 11:03:41;;;;;;;8.98;3.35;;;23.90;99.90;;;;;;5056719;28;20188;-55
2022/09/20 11:06:16;;;;;;;3.25;2.30;;;23.90;99.90;;;;;;5051981;28;20296;-55
2022/09/20 11:08:44;;;;;;;4.45;2.35;;;24.00;99.90;;;;;;5051773;28;20745;-55
2022/09/20 11:11:35;;;;;;;2.72;2.08;;;23.90;99.90;;;;;;5051841;28;20663;-55
2022/09/20 11:14:04;;;;;;;3.58;2.13;;;24.00;99.90;;;;;;5050975;28;20213;-55
2022/09/20 11:16:42;;;;;;;4.30;2.50;;;24.80;99.90;;;;;;5051785;28;20162;-56
2022/09/20 11:19:46;;;;;;;4.80;2.90;;;25.60;99.90;;;;;;5051843;28;20610;-55
2022/09/20 11:22:19;;;;;;;5.53;3.50;;;25.20;99.90;;;;;;5051893;28;20165;-55
2022/09/20 11:25:12;;;;;;;4.50;3.50;;;24.60;99.90;;;;;;5051716;28;20631;-55
2022/09/20 11:27:44;;;;;;;6.03;3.08;;;24.50;99.90;;;;;;5051623;28;20173;-55
2022/09/20 11:30:21;;;;;;;4.93;2.88;;;24.90;99.90;;;;;;5051574;28;20177;-55
2022/09/20 11:33:03;;;;;;;5.07;3.00;;;24.80;99.90;;;;;;5051631;28;20256;-55
2022/09/20 11:35:36;;;;;;;3.53;2.90;;;24.80;99.90;;;;;;5051426;28;20278;-56
2022/09/20 11:38:17;;;;;;;7.38;3.38;;;24.70;99.90;;;;;;5051541;28;20188;-55
2022/09/20 11:40:59;;;;;;;3.10;2.70;;;24.90;99.90;;;;;;5051246;28;20253;-55
2022/09/20 11:43:27;;;;;;;5.13;2.80;;;25.00;99.90;;;;;;5051429;28;20517;-57
2022/09/20 11:45:57;;;;;;;5.13;3.05;;;24.70;99.90;;;;;;5051293;28;20207;-55
2022/09/20 11:48:29;;;;;;;4.72;2.80;;;24.60;99.90;;;;;;5051138;28;20204;-56
2022/09/20 11:51:23;;;;;;;3.55;2.53;;;25.40;99.90;;;;;;5051090;28;20215;-55
2022/09/20 11:54:22;;;;;;;5.03;2.25;;;25.50;99.90;;;;;;5051450;28;20173;-55
2022/09/20 11:56:54;;;;;;;3.40;2.15;;;27.10;99.90;;;;;;5051338;28;20181;-55
2022/09/20 11:59:41;;;;;;;3.58;1.80;;;28.40;99.90;;;;;;5051254;28;20180;-55
2022/09/20 12:02:22;;;;;;;6.20;2.10;;;28.50;99.90;;;;;;5051103;28;20180;-56
2022/09/20 12:04:52;;;;;;;4.07;2.13;;;28.70;99.90;;;;;;5050942;28;20699;-56
2022/09/20 12:07:23;;;;;;;5.78;2.50;;;28.80;99.90;;;;;;5051035;28;20182;-56
2022/09/20 12:09:54;;;;;;;3.72;2.72;;;29.70;99.90;;;;;;5050888;28;20642;-56
2022/09/20 12:12:31;;;;;;;4.38;2.38;;;30.10;99.90;;;;;;5050963;28;20173;-57
2022/09/20 12:15:00;;;;;;;2.33;2.00;;;29.60;99.90;;;;;;5050841;28;20176;-57
2022/09/20 12:17:48;;;;;;;4.13;2.20;;;27.10;99.90;;;;;;5050907;28;20161;-56
2022/09/20 12:20:33;;;;;;;6.70;2.20;;;25.10;99.90;;;;;;5050864;28;20179;-57
2022/09/20 12:23:39;;;;;;;4.22;2.50;;;24.30;99.90;;;;;;5050863;28;20211;-57
2022/09/20 12:26:19;;;;;;;6.55;2.22;;;23.50;99.90;;;;;;5050069;28;20181;-56
2022/09/20 12:28:49;;;;;;;4.65;2.40;;;23.20;99.90;;;;;;5050453;28;20247;-57
2022/09/20 12:31:17;;;;;;;4.00;2.15;;;24.20;99.90;;;;;;5050656;28;20180;-56
2022/09/20 12:34:12;;;;;;;3.38;2.10;;;24.00;99.90;;;;;;5050528;28;20169;-56
2022/09/20 12:36:42;;;;;;;3.58;1.90;;;23.80;99.90;;;;;;5021345;28;20185;-56
2022/09/20 12:39:10;;;;;;;2.72;1.92;;;23.60;99.90;;;;;;5032380;28;20180;-57
2022/09/20 12:42:02;;;;;;;2.78;1.67;;;22.80;99.90;;;;;;5050505;28;20166;-56
2022/09/20 12:44:43;;;;;;;2.88;1.75;;;23.00;99.90;;;;;;5050472;28;20647;-57
2022/09/20 12:47:09;;;;;;;4.45;2.00;;;22.90;99.90;;;;;;5050547;28;20613;-56
2022/09/20 12:52:49;;;;;;;3.92;1.92;;;21.70;99.90;;;;;;5050636;28;20172;-55
2022/09/20 12:55:29;;;;;;;3.38;2.65;;;22.80;99.90;;;;;;5050215;28;20644;-56
2022/09/20 12:58:13;;;;;;;8.52;4.00;;;23.00;99.90;;;;;;5050047;28;20295;-56
2022/09/20 13:00:45;;;;;;;13.57;4.80;;;23.10;99.90;;;;;;5050245;28;20180;-56
2022/09/20 13:03:35;;;;;;;7.22;4.15;;;23.20;99.90;;;;;;5050098;28;20169;-57
2022/09/20 13:06:11;;;;;;;8.35;4.13;;;23.20;99.90;;;;;;5049051;28;20223;-57
2022/09/20 13:09:03;;;;;;;7.13;3.67;;;23.30;99.90;;;;;;5049991;28;20586;-56
2022/09/20 13:11:51;;;;;;;9.50;3.50;;;22.90;99.90;;;;;;5032150;28;20173;-57
2022/09/20 13:14:22;;;;;;;10.75;4.07;;;22.90;99.90;;;;;;5050051;28;20173;-56
2022/09/20 13:16:57;;;;;;;8.57;3.20;;;22.80;99.90;;;;;;5050122;28;20476;-57
2022/09/20 13:19:27;;;;;;;9.27;3.42;;;23.00;99.90;;;;;;5052777;28;20204;-55
2022/09/20 13:22:01;;;;;;;3.80;2.70;;;23.00;99.90;;;;;;5065218;28;20604;-55
2022/09/20 13:24:31;;;;;;;4.22;1.88;;;22.80;99.90;;;;;;5066144;28;20185;-56
2022/09/20 13:27:05;;;;;;;2.28;1.88;;;22.70;99.90;;;;;;5049870;28;20166;-56
2022/09/20 13:29:39;;;;;;;7.07;1.70;;;22.50;99.90;;;;;;5049882;28;20227;-56
2022/09/20 13:32:21;;;;;;;4.60;1.70;;;22.50;99.90;;;;;;5049960;28;20315;-56
2022/09/20 13:35:24;;;;;;;6.75;2.63;;;22.60;99.90;;;;;;5049925;28;20184;-56
2022/09/20 13:38:06;;;;;;;8.38;3.00;;;22.50;99.90;;;;;;5052752;28;20318;-56
2022/09/20 13:40:46;;;;;;;11.68;3.30;;;22.40;99.90;;;;;;5053810;28;20173;-56
2022/09/20 13:43:29;;;;;;;5.15;3.40;;;22.30;99.90;;;;;;5053831;28;20223;-55
2022/09/20 13:46:05;;;;;;;8.82;3.50;;;22.20;99.90;;;;;;5053436;28;20177;-55
2022/09/20 13:48:31;;;;;;;12.18;3.33;;;22.10;99.90;;;;;;5053318;28;20219;-55
2022/09/20 13:50:57;;;;;;;5.13;3.05;;;22.10;99.90;;;;;;5053396;28;20181;-55
2022/09/20 13:53:25;;;;;;;6.65;3.20;;;22.20;99.90;;;;;;5053393;28;20170;-55
2022/09/20 13:55:54;;;;;;;9.07;3.33;;;22.20;99.90;;;;;;5053254;28;20238;-55